Hlavní strana
METAR-TAF:

METAR-TAF

Letiště :

Lusaka, Zambie

zeměpisná šířka: 15-19-51S, zeměpisná délka: 028-27-09E, výška: 1152 m

Aktuální stav počasí

Zpráva byla vytvořena před 10 hodinami a 56 minutami, v 18:00 UTC
vítr z různých směrů 2 kt
Teplota 24°C
Vlhkost vzduchu 54%
Tlak 1014 hPa
Viditelnost 10 km a více
Žádná oblačnost pod 1500 m, nevyskytují se cumulonimby.

METAR: FLKK 171800Z VRB02KT CAVOK 24/14 Q1014

Čas: 06:56 (04:56 UTC)


TAF: chybějící

Stav a předpovědi počasí z více než 4 000 letišť (zprávy METAR a TAF).

Červené a žluté tečky na mapě představují dostupné meteorologické stanice.

Když kurzor umístíte na tečku, zobrazí se název stanice.

Pak kliknutím zobrazíte stav a předpověď počasí.

Chcete-li změnit mapu, kliknutím na zelené tlačítko se znaménkem +mapu přiblížíte, kliknutím na zelené tlačítko se znaménkem – mapu oddálíte a kliknutím na zelené šipky přejdete na sousední mapy.


METAR-TAF: